createdAt,value
2023-04-27T00:00:09.532Z,6.20
2023-04-27T00:02:39.989Z,6.20
2023-04-27T00:05:12.049Z,6.20
2023-04-27T00:07:41.295Z,6.10
2023-04-27T00:10:13.829Z,6.10
2023-04-27T00:12:43.041Z,6.10
2023-04-27T00:15:12.943Z,6.10
2023-04-27T00:17:43.654Z,6.00
2023-04-27T00:20:13.548Z,6.00
2023-04-27T00:22:42.752Z,5.90
2023-04-27T00:25:13.040Z,5.90
2023-04-27T00:27:42.210Z,5.80
2023-04-27T00:30:11.795Z,5.80
2023-04-27T00:32:40.658Z,5.80
2023-04-27T00:35:10.616Z,5.80
2023-04-27T00:37:39.339Z,5.70
2023-04-27T00:40:09.411Z,5.70
2023-04-27T00:42:39.772Z,5.70
2023-04-27T00:45:09.809Z,5.70
2023-04-27T00:47:38.405Z,5.60
2023-04-27T00:50:08.880Z,5.60
2023-04-27T00:52:38.544Z,5.60
2023-04-27T00:55:08.615Z,5.50
2023-04-27T00:57:39.118Z,5.50
2023-04-27T01:00:13.881Z,5.50
2023-04-27T01:02:43.802Z,5.50
2023-04-27T01:05:12.728Z,5.50
2023-04-27T01:07:41.540Z,5.40
2023-04-27T01:10:11.256Z,5.50
2023-04-27T01:12:41.556Z,5.40
2023-04-27T01:15:11.784Z,5.40
2023-04-27T01:17:40.609Z,5.40
2023-04-27T01:20:11.028Z,5.40
2023-04-27T01:22:39.984Z,5.30
2023-04-27T01:25:11.751Z,5.30
2023-04-27T01:27:40.211Z,5.30
2023-04-27T01:30:09.857Z,5.20
2023-04-27T01:32:39.352Z,5.20
2023-04-27T01:35:08.849Z,5.20
2023-04-27T01:37:37.576Z,5.20
2023-04-27T01:40:08.713Z,5.10
2023-04-27T01:42:38.656Z,5.10
2023-04-27T01:45:08.239Z,5.10
2023-04-27T01:47:36.752Z,5.10
2023-04-27T01:50:05.630Z,5.10
2023-04-27T01:52:34.439Z,5.00
2023-04-27T01:55:03.603Z,5.00
2023-04-27T01:57:32.197Z,5.00
2023-04-27T02:00:02.580Z,4.90
2023-04-27T02:02:31.296Z,4.90
2023-04-27T02:04:59.887Z,4.90
2023-04-27T02:07:28.649Z,4.90
2023-04-27T02:09:57.266Z,4.90
2023-04-27T02:12:25.773Z,4.90
2023-04-27T02:14:54.756Z,4.90
2023-04-27T02:17:24.663Z,4.80
2023-04-27T02:19:53.260Z,4.80
2023-04-27T02:22:22.188Z,4.80
2023-04-27T02:24:50.936Z,4.80
2023-04-27T02:27:19.498Z,4.70
2023-04-27T02:29:48.442Z,4.70
2023-04-27T02:32:17.602Z,4.70
2023-04-27T02:34:47.541Z,4.70
2023-04-27T02:37:16.466Z,4.70
2023-04-27T02:39:44.939Z,4.70
2023-04-27T02:42:13.485Z,4.70
2023-04-27T02:44:41.965Z,4.50
2023-04-27T02:47:11.393Z,4.60
2023-04-27T02:49:40.278Z,4.60
2023-04-27T02:52:10.545Z,4.50
2023-04-27T02:54:39.788Z,4.50
2023-04-27T02:57:08.538Z,4.50
2023-04-27T02:59:36.982Z,4.50
2023-04-27T03:02:05.487Z,4.40
2023-04-27T03:04:34.156Z,4.40
2023-04-27T03:07:02.688Z,4.40
2023-04-27T03:09:32.681Z,4.40
2023-04-27T03:12:01.408Z,4.40
2023-04-27T03:14:29.968Z,4.30
2023-04-27T03:16:58.820Z,4.30
2023-04-27T03:19:27.346Z,4.30
2023-04-27T03:21:55.771Z,4.30
2023-04-27T03:24:25.617Z,4.20
2023-04-27T03:26:55.851Z,4.20
2023-04-27T03:29:24.697Z,4.20
2023-04-27T03:31:53.191Z,4.20
2023-04-27T03:34:22.356Z,4.10
2023-04-27T03:36:51.110Z,4.10
2023-04-27T03:39:19.991Z,4.10
2023-04-27T03:41:48.792Z,4.10
2023-04-27T03:44:18.622Z,4.10
2023-04-27T03:46:47.272Z,4.10
2023-04-27T03:49:16.106Z,4.10
2023-04-27T03:51:44.762Z,4.00
2023-04-27T03:54:13.126Z,4.00
2023-04-27T03:56:42.039Z,4.00
2023-04-27T03:59:10.605Z,4.00
2023-04-27T04:01:41.708Z,4.00
2023-04-27T04:04:10.839Z,4.00
2023-04-27T04:06:39.643Z,4.00
2023-04-27T04:09:08.301Z,3.90
2023-04-27T04:11:37.312Z,3.90
2023-04-27T04:14:06.264Z,3.90
2023-04-27T04:16:35.523Z,3.90
2023-04-27T04:19:05.495Z,3.90
2023-04-27T04:21:34.450Z,3.80
2023-04-27T04:24:04.049Z,3.80
2023-04-27T04:26:34.216Z,3.80
2023-04-27T04:29:02.867Z,3.80
2023-04-27T04:31:31.337Z,3.70
2023-04-27T04:33:59.880Z,3.70
2023-04-27T04:36:31.278Z,3.70
2023-04-27T04:39:00.552Z,3.70
2023-04-27T04:41:29.113Z,3.70
2023-04-27T04:43:57.673Z,3.70
2023-04-27T04:46:26.509Z,3.70
2023-04-27T04:48:55.196Z,3.70
2023-04-27T04:51:23.990Z,3.70
2023-04-27T04:53:53.881Z,3.70
2023-04-27T04:56:22.371Z,3.80
2023-04-27T04:58:51.494Z,3.70
2023-04-27T05:01:20.205Z,3.80
2023-04-27T05:03:49.193Z,3.80
2023-04-27T05:06:17.832Z,3.90
2023-04-27T05:08:46.736Z,3.90
2023-04-27T05:11:16.598Z,4.00
2023-04-27T05:13:45.091Z,4.00
2023-04-27T05:16:13.993Z,4.10
2023-04-27T05:18:42.693Z,4.10
2023-04-27T05:21:16.605Z,4.20
2023-04-27T05:23:45.063Z,4.20
2023-04-27T05:26:16.764Z,4.30
2023-04-27T05:28:47.459Z,4.40
2023-04-27T05:31:16.271Z,4.40
2023-04-27T05:33:44.993Z,4.50
2023-04-27T05:36:13.794Z,4.60
2023-04-27T05:38:43.019Z,4.60
2023-04-27T05:41:11.745Z,4.70
2023-04-27T05:43:42.136Z,4.80
2023-04-27T05:46:16.585Z,4.90
2023-04-27T05:48:45.419Z,5.00
2023-04-27T05:51:14.013Z,5.10
2023-04-27T05:53:43.141Z,5.30
2023-04-27T05:56:12.624Z,5.40
2023-04-27T05:58:42.738Z,5.50
2023-04-27T06:01:11.491Z,5.60
2023-04-27T06:03:40.203Z,5.80
2023-04-27T06:06:08.868Z,5.90
2023-04-27T06:08:37.905Z,5.90
2023-04-27T06:11:07.263Z,6.00
2023-04-27T06:13:35.835Z,6.00
2023-04-27T06:16:06.566Z,6.10
2023-04-27T06:18:35.025Z,6.20
2023-04-27T06:21:04.059Z,6.30
2023-04-27T06:23:33.098Z,6.40
2023-04-27T06:26:02.452Z,6.40
2023-04-27T06:28:31.839Z,6.50
2023-04-27T06:31:00.811Z,6.60
2023-04-27T06:33:30.965Z,6.60
2023-04-27T06:35:59.797Z,6.60
2023-04-27T06:38:28.525Z,6.80
2023-04-27T06:40:57.136Z,6.80
2023-04-27T06:43:25.990Z,6.90
2023-04-27T06:45:54.672Z,7.00
2023-04-27T06:48:23.753Z,7.10
2023-04-27T06:50:53.606Z,7.20
2023-04-27T06:53:22.382Z,7.20
2023-04-27T06:55:51.140Z,7.20
2023-04-27T06:58:19.692Z,7.30
2023-04-27T07:00:48.210Z,7.40
2023-04-27T07:03:17.306Z,7.50
2023-04-27T07:05:47.013Z,7.50
2023-04-27T07:08:16.970Z,7.50
2023-04-27T07:10:45.891Z,7.60
2023-04-27T07:13:14.522Z,7.60
2023-04-27T07:15:43.579Z,7.60
2023-04-27T07:18:12.717Z,7.70
2023-04-27T07:20:43.970Z,7.70
2023-04-27T07:23:12.795Z,7.80
2023-04-27T07:25:43.600Z,7.80
2023-04-27T07:28:12.409Z,8.00
2023-04-27T07:30:42.123Z,8.10
2023-04-27T07:33:11.241Z,8.30
2023-04-27T07:35:40.451Z,8.30
2023-04-27T07:38:09.393Z,8.50
2023-04-27T07:40:37.835Z,8.50
2023-04-27T07:43:07.906Z,8.60
2023-04-27T07:45:39.508Z,8.70
2023-04-27T07:48:08.959Z,8.80
2023-04-27T07:50:37.440Z,8.90
2023-04-27T07:53:06.203Z,8.90
2023-04-27T07:55:34.960Z,9.00
2023-04-27T07:58:04.291Z,9.10
2023-04-27T08:00:34.510Z,9.20
2023-04-27T08:03:03.231Z,9.40
2023-04-27T08:05:32.651Z,9.50
2023-04-27T08:08:01.884Z,9.50
2023-04-27T08:10:30.527Z,9.50
2023-04-27T08:12:59.021Z,9.60
2023-04-27T08:15:27.540Z,9.70
2023-04-27T08:17:57.640Z,9.80
2023-04-27T08:20:26.556Z,9.90
2023-04-27T08:22:54.948Z,10.00
2023-04-27T08:25:23.878Z,10.10
2023-04-27T08:27:52.719Z,10.20
2023-04-27T08:30:21.670Z,10.20
2023-04-27T08:32:50.235Z,10.30
2023-04-27T08:35:20.515Z,10.50
2023-04-27T08:37:48.920Z,10.70
2023-04-27T08:40:17.498Z,11.00
2023-04-27T08:42:56.528Z,11.20
2023-04-27T08:45:25.592Z,11.30
2023-04-27T08:47:54.747Z,11.50
2023-04-27T08:50:26.257Z,11.60
2023-04-27T08:52:54.603Z,11.70
2023-04-27T08:55:23.876Z,11.90
2023-04-27T08:58:01.454Z,11.90
2023-04-27T09:00:41.557Z,11.90
2023-04-27T09:03:10.741Z,12.00
2023-04-27T09:06:00.672Z,12.20
2023-04-27T09:08:43.455Z,12.20
2023-04-27T09:11:12.285Z,12.30
2023-04-27T09:13:45.595Z,12.20
2023-04-27T09:16:15.409Z,12.30
2023-04-27T09:18:45.202Z,12.40
2023-04-27T09:21:24.885Z,12.60
2023-04-27T09:23:54.040Z,12.70
2023-04-27T09:26:24.272Z,13.00
2023-04-27T09:28:54.322Z,13.00
2023-04-27T09:31:22.888Z,13.20
2023-04-27T09:33:57.501Z,13.20
2023-04-27T09:36:27.786Z,13.30
2023-04-27T09:38:56.517Z,13.10
2023-04-27T09:41:25.260Z,13.00
2023-04-27T09:43:57.901Z,13.00
2023-04-27T09:46:27.664Z,13.20
2023-04-27T09:48:57.721Z,13.40
2023-04-27T09:51:29.011Z,13.60
2023-04-27T09:54:01.609Z,13.80
2023-04-27T09:56:43.410Z,13.90
2023-04-27T09:59:51.751Z,14.00
2023-04-27T10:02:24.797Z,14.10
2023-04-27T10:05:23.181Z,13.90
2023-04-27T10:07:54.440Z,14.00
2023-04-27T10:10:23.227Z,14.20
2023-04-27T10:13:03.970Z,14.50
2023-04-27T10:15:32.572Z,14.60
2023-04-27T10:18:07.260Z,14.70
2023-04-27T10:20:39.100Z,14.90
2023-04-27T10:23:09.619Z,14.80
2023-04-27T10:25:42.968Z,15.00
2023-04-27T10:28:17.757Z,15.10
2023-04-27T10:30:49.494Z,15.10
2023-04-27T10:33:19.708Z,15.20
2023-04-27T10:35:57.071Z,15.30
2023-04-27T10:38:33.536Z,15.40
2023-04-27T10:41:05.677Z,15.50
2023-04-27T10:43:36.945Z,15.70
2023-04-27T10:46:13.406Z,15.80
2023-04-27T10:48:42.926Z,15.70
2023-04-27T10:51:12.751Z,15.70
2023-04-27T10:53:42.656Z,15.60
2023-04-27T10:56:11.999Z,15.50
2023-04-27T10:58:48.674Z,15.60
2023-04-27T11:01:26.471Z,15.60
2023-04-27T11:03:57.443Z,15.60
2023-04-27T11:06:26.642Z,15.50
2023-04-27T11:08:57.026Z,15.50
2023-04-27T11:11:26.484Z,15.60
2023-04-27T11:13:56.129Z,15.80
2023-04-27T11:16:25.315Z,15.70
2023-04-27T11:18:53.935Z,15.70
2023-04-27T11:21:23.225Z,15.90
2023-04-27T11:23:51.801Z,16.10
2023-04-27T11:26:23.952Z,16.10
2023-04-27T11:29:01.467Z,15.70
2023-04-27T11:31:39.981Z,15.40
2023-04-27T11:34:08.894Z,15.40
2023-04-27T11:36:37.834Z,15.60
2023-04-27T11:39:07.581Z,15.80
2023-04-27T11:41:39.362Z,16.10
2023-04-27T11:44:09.390Z,16.30
2023-04-27T11:46:38.982Z,16.20
2023-04-27T11:49:09.176Z,16.30
2023-04-27T11:51:37.960Z,16.30
2023-04-27T11:54:08.189Z,15.90
2023-04-27T11:56:40.694Z,15.80
2023-04-27T11:59:20.906Z,16.10
2023-04-27T12:01:49.827Z,16.30
2023-04-27T12:04:18.885Z,16.50
2023-04-27T12:06:47.756Z,16.70
2023-04-27T12:09:17.884Z,17.00
2023-04-27T12:11:48.167Z,17.10
2023-04-27T12:14:17.163Z,17.20
2023-04-27T12:16:45.758Z,17.30
2023-04-27T12:19:14.276Z,17.20
2023-04-27T12:21:42.993Z,17.30
2023-04-27T12:24:12.446Z,17.40
2023-04-27T12:26:41.609Z,17.50
2023-04-27T12:29:11.680Z,17.50
2023-04-27T12:31:40.556Z,17.20
2023-04-27T12:34:09.091Z,16.60
2023-04-27T12:36:38.029Z,16.60
2023-04-27T12:39:16.097Z,16.50
2023-04-27T12:41:45.319Z,16.80
2023-04-27T12:44:22.793Z,16.90
2023-04-27T12:46:52.166Z,17.30
2023-04-27T12:49:20.847Z,17.60
2023-04-27T12:51:52.090Z,18.10
2023-04-27T12:54:21.038Z,18.30
2023-04-27T12:56:49.794Z,18.40
2023-04-27T12:59:20.332Z,18.50
2023-04-27T13:01:49.171Z,18.50
2023-04-27T13:04:22.243Z,18.30
2023-04-27T13:06:51.406Z,18.10
2023-04-27T13:09:19.921Z,18.20
2023-04-27T13:11:48.264Z,18.20
2023-04-27T13:14:17.189Z,18.20
2023-04-27T13:16:47.508Z,18.40
2023-04-27T13:19:15.967Z,18.40
2023-04-27T13:21:44.591Z,18.20
2023-04-27T13:24:14.047Z,18.10
2023-04-27T13:26:42.968Z,18.20
2023-04-27T13:29:11.752Z,18.30
2023-04-27T13:31:40.321Z,18.50
2023-04-27T13:34:10.044Z,18.60
2023-04-27T13:36:38.300Z,18.50
2023-04-27T13:39:07.973Z,18.70
2023-04-27T13:41:36.827Z,18.80
2023-04-27T13:44:05.023Z,18.80
2023-04-27T13:46:33.743Z,18.80
2023-04-27T13:49:02.184Z,18.50
2023-04-27T13:51:34.012Z,18.20
2023-04-27T13:54:03.694Z,17.90
2023-04-27T13:56:32.368Z,17.90
2023-04-27T13:59:00.713Z,17.90
2023-04-27T14:01:30.449Z,18.00
2023-04-27T14:03:59.032Z,18.00
2023-04-27T14:06:28.598Z,17.90
2023-04-27T14:08:59.260Z,18.00
2023-04-27T14:11:27.717Z,17.80
2023-04-27T14:13:56.012Z,17.60
2023-04-27T14:16:24.922Z,17.60
2023-04-27T14:18:53.555Z,17.60
2023-04-27T14:21:21.917Z,17.70
2023-04-27T14:23:50.806Z,17.70
2023-04-27T14:26:20.832Z,17.70
2023-04-27T14:28:49.153Z,17.60
2023-04-27T14:31:17.581Z,17.60
2023-04-27T14:33:47.713Z,17.70
2023-04-27T14:36:18.144Z,17.60
2023-04-27T14:38:46.841Z,17.60
2023-04-27T14:41:15.339Z,17.60
2023-04-27T14:43:48.755Z,17.60
2023-04-27T14:46:21.384Z,17.50
2023-04-27T14:48:51.601Z,17.50
2023-04-27T14:51:28.947Z,17.50
2023-04-27T14:53:57.270Z,17.40
2023-04-27T14:56:26.186Z,17.40
2023-04-27T14:58:56.514Z,17.00
2023-04-27T15:01:25.021Z,16.70
2023-04-27T15:03:54.362Z,16.50
2023-04-27T15:06:24.282Z,16.60
2023-04-27T15:08:53.039Z,16.80
2023-04-27T15:11:22.462Z,16.90
2023-04-27T15:13:51.201Z,17.00
2023-04-27T15:16:21.649Z,17.00
2023-04-27T15:18:50.309Z,17.00
2023-04-27T15:21:19.054Z,17.00
2023-04-27T15:23:47.522Z,16.90
2023-04-27T15:26:15.869Z,17.00
2023-04-27T15:28:44.253Z,17.00
2023-04-27T15:31:13.043Z,16.90
2023-04-27T15:33:43.311Z,16.90
2023-04-27T15:36:12.126Z,16.90
2023-04-27T15:38:40.833Z,16.90
2023-04-27T15:41:10.542Z,16.90
2023-04-27T15:43:39.032Z,16.90
2023-04-27T15:46:08.328Z,17.00
2023-04-27T15:48:37.148Z,16.90
2023-04-27T15:51:10.277Z,16.90
2023-04-27T15:53:40.877Z,17.00
2023-04-27T15:56:10.118Z,16.90
2023-04-27T15:58:38.814Z,17.00
2023-04-27T16:01:07.626Z,17.00
2023-04-27T16:03:37.919Z,17.00
2023-04-27T16:06:08.611Z,16.90
2023-04-27T16:08:37.280Z,16.90
2023-04-27T16:11:06.923Z,16.80
2023-04-27T16:13:35.252Z,16.70
2023-04-27T16:16:04.435Z,16.70
2023-04-27T16:18:32.917Z,16.70
2023-04-27T16:21:01.129Z,16.70
2023-04-27T16:23:31.063Z,16.60
2023-04-27T16:25:59.858Z,16.50
2023-04-27T16:28:28.877Z,16.40
2023-04-27T16:30:57.251Z,16.30
2023-04-27T16:33:25.787Z,16.20
2023-04-27T16:35:54.284Z,16.20
2023-04-27T16:38:22.628Z,16.20
2023-04-27T16:40:55.339Z,16.10
2023-04-27T16:43:24.206Z,16.10
2023-04-27T16:45:52.672Z,16.10
2023-04-27T16:48:21.224Z,16.00
2023-04-27T16:50:49.722Z,16.00
2023-04-27T16:53:21.472Z,16.00
2023-04-27T16:55:52.144Z,16.00
2023-04-27T16:58:21.179Z,16.00
2023-04-27T17:00:49.856Z,15.90
2023-04-27T17:03:18.420Z,15.90
2023-04-27T17:05:47.045Z,15.80
2023-04-27T17:08:15.698Z,15.80
2023-04-27T17:10:45.744Z,15.70
2023-04-27T17:13:17.302Z,15.70
2023-04-27T17:15:46.672Z,15.60
2023-04-27T17:18:15.107Z,15.60
2023-04-27T17:20:43.731Z,15.60
2023-04-27T17:23:12.080Z,15.50
2023-04-27T17:25:41.503Z,15.40
2023-04-27T17:28:10.230Z,15.40
2023-04-27T17:30:40.554Z,15.30
2023-04-27T17:33:10.269Z,15.40
2023-04-27T17:35:38.708Z,15.30
2023-04-27T17:38:07.077Z,15.30
2023-04-27T17:40:35.383Z,15.20
2023-04-27T17:43:04.154Z,15.20
2023-04-27T17:45:33.554Z,15.10
2023-04-27T17:48:03.823Z,15.00
2023-04-27T17:50:32.804Z,14.90
2023-04-27T17:53:01.436Z,14.70
2023-04-27T17:55:30.499Z,14.60
2023-04-27T17:57:59.045Z,14.50
2023-04-27T18:00:27.889Z,14.40
2023-04-27T18:02:56.856Z,14.40
2023-04-27T18:05:27.139Z,14.40
2023-04-27T18:07:55.526Z,14.40
2023-04-27T18:10:24.245Z,14.40
2023-04-27T18:12:52.900Z,14.40
2023-04-27T18:15:21.787Z,14.30
2023-04-27T18:17:50.389Z,14.30
2023-04-27T18:20:19.401Z,14.20
2023-04-27T18:22:50.260Z,14.10
2023-04-27T18:25:19.158Z,14.00
2023-04-27T18:27:50.251Z,14.00
2023-04-27T18:30:18.974Z,14.00
2023-04-27T18:32:47.650Z,14.00
2023-04-27T18:35:16.249Z,13.90
2023-04-27T18:37:48.591Z,13.90
2023-04-27T18:40:22.239Z,13.80
2023-04-27T18:42:52.972Z,13.80
2023-04-27T18:45:21.818Z,13.70
2023-04-27T18:47:50.206Z,13.70
2023-04-27T18:50:19.295Z,13.60
2023-04-27T18:52:48.012Z,13.60
2023-04-27T18:55:18.217Z,13.50
2023-04-27T18:57:47.314Z,13.40
2023-04-27T19:00:16.664Z,13.40
2023-04-27T19:02:46.054Z,13.40
2023-04-27T19:05:16.322Z,13.30
2023-04-27T19:07:44.827Z,13.30
2023-04-27T19:10:13.510Z,13.30
2023-04-27T19:12:43.151Z,13.20
2023-04-27T19:15:14.021Z,13.10
2023-04-27T19:17:43.011Z,13.10
2023-04-27T19:20:12.820Z,13.00
2023-04-27T19:22:41.109Z,13.00
2023-04-27T19:25:11.084Z,12.90
2023-04-27T19:27:40.343Z,12.90
2023-04-27T19:30:12.275Z,12.80
2023-04-27T19:32:40.914Z,12.80
2023-04-27T19:35:12.536Z,12.70
2023-04-27T19:37:41.149Z,12.60
2023-04-27T19:40:11.717Z,12.60
2023-04-27T19:42:40.516Z,12.60
2023-04-27T19:45:11.511Z,12.50
2023-04-27T19:47:40.305Z,12.50
2023-04-27T19:50:09.328Z,12.50
2023-04-27T19:52:38.228Z,12.50
2023-04-27T19:55:07.651Z,12.40
2023-04-27T19:57:36.660Z,12.40
2023-04-27T20:00:07.394Z,12.40
2023-04-27T20:02:37.543Z,12.40
2023-04-27T20:05:07.560Z,12.40
2023-04-27T20:07:37.580Z,12.40
2023-04-27T20:10:07.303Z,12.30
2023-04-27T20:15:09.180Z,12.30
2023-04-27T20:17:39.316Z,12.20
2023-04-27T20:20:11.102Z,12.20
2023-04-27T20:22:39.749Z,12.20
2023-04-27T20:25:09.210Z,12.20
2023-04-27T20:27:37.865Z,12.10
2023-04-27T20:30:07.535Z,12.10
2023-04-27T20:32:36.376Z,12.10
2023-04-27T20:35:10.797Z,12.10
2023-04-27T20:37:40.222Z,12.10
2023-04-27T20:40:13.457Z,12.10
2023-04-27T20:42:43.647Z,12.10
2023-04-27T20:45:13.358Z,12.10
2023-04-27T20:47:42.610Z,12.00
2023-04-27T20:50:13.052Z,12.00
2023-04-27T20:52:41.628Z,12.00
2023-04-27T20:55:11.185Z,12.00
2023-04-27T20:57:40.375Z,12.00
2023-04-27T21:00:10.709Z,11.90
2023-04-27T21:02:39.833Z,11.90
2023-04-27T21:05:09.302Z,11.90
2023-04-27T21:07:39.517Z,11.90
2023-04-27T21:10:08.795Z,11.90
2023-04-27T21:12:37.562Z,11.90
2023-04-27T21:15:06.808Z,11.80
2023-04-27T21:17:36.514Z,11.80
2023-04-27T21:20:05.308Z,11.80
2023-04-27T21:22:33.883Z,11.70
2023-04-27T21:25:04.815Z,11.70
2023-04-27T21:27:33.475Z,11.60
2023-04-27T21:30:02.081Z,11.60
2023-04-27T21:32:30.800Z,11.60
2023-04-27T21:34:59.659Z,11.50
2023-04-27T21:37:28.174Z,11.50
2023-04-27T21:39:56.672Z,11.50
2023-04-27T21:42:26.509Z,11.40
2023-04-27T21:44:55.745Z,11.40
2023-04-27T21:47:24.976Z,11.30
2023-04-27T21:49:53.934Z,11.20
2023-04-27T21:52:23.146Z,11.20
2023-04-27T21:54:52.134Z,11.10
2023-04-27T21:57:20.929Z,11.10
2023-04-27T21:59:50.854Z,11.10
2023-04-27T22:02:19.461Z,11.10
2023-04-27T22:04:49.297Z,11.10
2023-04-27T22:07:18.973Z,11.10
2023-04-27T22:09:47.809Z,11.00
2023-04-27T22:12:16.583Z,11.10
2023-04-27T22:14:47.315Z,11.00
2023-04-27T22:17:17.122Z,11.00
2023-04-27T22:19:45.816Z,11.00
2023-04-27T22:22:14.600Z,11.00
2023-04-27T22:24:43.355Z,11.00
2023-04-27T22:27:11.901Z,11.00
2023-04-27T22:29:40.408Z,11.00
2023-04-27T22:32:09.368Z,11.00
2023-04-27T22:34:39.496Z,11.00
2023-04-27T22:37:07.994Z,11.00
2023-04-27T22:39:36.901Z,10.90
2023-04-27T22:42:05.616Z,10.90
2023-04-27T22:44:34.444Z,10.90
2023-04-27T22:47:04.713Z,10.90
2023-04-27T22:49:34.497Z,10.80
2023-04-27T22:52:05.210Z,10.80
2023-04-27T22:54:33.992Z,10.80
2023-04-27T22:57:02.868Z,10.80
2023-04-27T22:59:31.544Z,10.80
2023-04-27T23:02:00.619Z,10.80
2023-04-27T23:04:29.176Z,10.80
2023-04-27T23:06:57.702Z,10.80
2023-04-27T23:09:28.199Z,10.80
2023-04-27T23:11:57.954Z,10.80
2023-04-27T23:14:26.872Z,10.80
2023-04-27T23:16:56.435Z,10.90
2023-04-27T23:19:25.094Z,10.90
2023-04-27T23:21:53.475Z,10.90
2023-04-27T23:24:21.903Z,10.90
2023-04-27T23:26:52.027Z,10.90
2023-04-27T23:29:20.513Z,10.90
2023-04-27T23:31:49.053Z,10.80
2023-04-27T23:34:18.491Z,10.80
2023-04-27T23:36:47.391Z,10.80
2023-04-27T23:39:15.785Z,10.80
2023-04-27T23:41:44.585Z,10.80
2023-04-27T23:44:14.587Z,10.80
2023-04-27T23:46:43.538Z,10.80
2023-04-27T23:49:12.373Z,10.80
2023-04-27T23:51:40.886Z,10.80
2023-04-27T23:54:09.689Z,10.70
2023-04-27T23:56:38.460Z,10.80
2023-04-27T23:59:07.301Z,10.70
